ボードー の空港の天気 - METARとTAF

Bodo Vi ( ENBO / BOO ) - ノルウェー ヌールラン県ボードー
飛行場実況気象(Metar)
観測時間04/21 18:50 CEST (04/21 16:50 UTC)
風向・風速西南西 7m/s
視程10km以上
天気現象周辺でしゅう雨
少しの雲 雲底高度 370m
全天の8割程度の雲 雲底高度 760m
気温6℃
湿度87%
気圧1015hPa
METARENBO 211650Z 25014KT 9999 VCSH FEW012 BKN025 06/04 Q1015 NOSIG
過去の天気等 Google飛行場航空写真 Wunderground天気予報

過去48時間のMETAR

飛行場予報(TAF)
発表時間: -
21日14時 CEST ~ 21日23時 CEST に一時的に
風向・風速南西 10m/s 瞬間風速 15m/s
22日2時 CEST ~ 22日5時 CEST に徐々に
風向・風速東 4m/s
TAF ENBO 2112/2212 23020KT 9999 -SHRA FEW010 SCT020 BKN030
TEMPO 2112/2121 23020G30KT
BECMG 2200/2203 09008KT